sensor_id;sensor_type;location;lat;lon;timestamp;pressure;altitude;pressure_sealevel;temperature;humidity
62928;BME280;51070;52.236;-0.892;2022-09-01T00:01:33;101528.98;;;15.49;68.97
62928;BME280;51070;52.236;-0.892;2022-09-01T00:03:59;101525.00;;;15.50;68.94
62928;BME280;51070;52.236;-0.892;2022-09-01T00:06:28;101522.41;;;15.51;68.95
62928;BME280;51070;52.236;-0.892;2022-09-01T00:08:54;101521.91;;;15.51;68.93
62928;BME280;51070;52.236;-0.892;2022-09-01T00:11:21;101522.55;;;15.50;68.99
62928;BME280;51070;52.236;-0.892;2022-09-01T00:13:47;101522.17;;;15.48;69.03
62928;BME280;51070;52.236;-0.892;2022-09-01T00:16:13;101519.11;;;15.45;69.21
62928;BME280;51070;52.236;-0.892;2022-09-01T00:18:41;101515.20;;;15.42;69.26
62928;BME280;51070;52.236;-0.892;2022-09-01T00:21:08;101515.30;;;15.39;69.33
62928;BME280;51070;52.236;-0.892;2022-09-01T00:23:34;101512.26;;;15.35;69.45
62928;BME280;51070;52.236;-0.892;2022-09-01T00:25:59;101511.67;;;15.33;69.58
62928;BME280;51070;52.236;-0.892;2022-09-01T00:28:25;101509.48;;;15.29;69.75
62928;BME280;51070;52.236;-0.892;2022-09-01T00:30:50;101510.45;;;15.26;70.02
62928;BME280;51070;52.236;-0.892;2022-09-01T00:33:16;101507.58;;;15.23;70.16
62928;BME280;51070;52.236;-0.892;2022-09-01T00:35:41;101505.05;;;15.19;70.22
62928;BME280;51070;52.236;-0.892;2022-09-01T00:38:06;101505.16;;;15.17;70.33
62928;BME280;51070;52.236;-0.892;2022-09-01T00:40:32;101509.48;;;15.15;70.50
62928;BME280;51070;52.236;-0.892;2022-09-01T00:42:57;101503.86;;;15.13;70.70
62928;BME280;51070;52.236;-0.892;2022-09-01T00:45:24;101506.48;;;15.13;70.87
62928;BME280;51070;52.236;-0.892;2022-09-01T00:47:50;101503.84;;;15.13;70.88
62928;BME280;51070;52.236;-0.892;2022-09-01T00:50:16;101502.12;;;15.13;70.99
62928;BME280;51070;52.236;-0.892;2022-09-01T00:52:43;101496.03;;;15.14;71.01
62928;BME280;51070;52.236;-0.892;2022-09-01T00:55:43;101496.09;;;15.16;71.03
62928;BME280;51070;52.236;-0.892;2022-09-01T00:58:03;101494.05;;;15.18;71.02
62928;BME280;51070;52.236;-0.892;2022-09-01T01:00:30;101494.21;;;15.18;71.10
62928;BME280;51070;52.236;-0.892;2022-09-01T01:02:56;101494.73;;;15.17;71.12
62928;BME280;51070;52.236;-0.892;2022-09-01T01:05:22;101490.35;;;15.16;71.18
62928;BME280;51070;52.236;-0.892;2022-09-01T01:07:52;101489.59;;;15.14;71.21
62928;BME280;51070;52.236;-0.892;2022-09-01T01:10:19;101484.67;;;15.12;71.35
62928;BME280;51070;52.236;-0.892;2022-09-01T01:12:46;101479.77;;;15.10;71.35
62928;BME280;51070;52.236;-0.892;2022-09-01T01:15:13;101479.00;;;15.08;71.40
62928;BME280;51070;52.236;-0.892;2022-09-01T01:17:39;101475.45;;;15.05;71.47
62928;BME280;51070;52.236;-0.892;2022-09-01T01:20:05;101479.35;;;15.02;71.49
62928;BME280;51070;52.236;-0.892;2022-09-01T01:25:28;101477.47;;;14.96;71.63
62928;BME280;51070;52.236;-0.892;2022-09-01T01:30:35;101475.31;;;14.93;71.80
62928;BME280;51070;52.236;-0.892;2022-09-01T01:33:03;101478.11;;;14.94;71.86
62928;BME280;51070;52.236;-0.892;2022-09-01T01:35:29;101474.14;;;14.95;71.89
62928;BME280;51070;52.236;-0.892;2022-09-01T01:37:56;101477.80;;;14.96;71.76
62928;BME280;51070;52.236;-0.892;2022-09-01T01:40:21;101476.98;;;14.97;71.85
62928;BME280;51070;52.236;-0.892;2022-09-01T01:42:51;101476.15;;;14.99;71.98
62928;BME280;51070;52.236;-0.892;2022-09-01T01:45:20;101476.02;;;15.00;71.87
62928;BME280;51070;52.236;-0.892;2022-09-01T01:47:47;101468.05;;;15.02;71.83
62928;BME280;51070;52.236;-0.892;2022-09-01T01:50:27;101466.00;;;15.03;71.84
62928;BME280;51070;52.236;-0.892;2022-09-01T01:52:55;101463.92;;;15.04;71.77
62928;BME280;51070;52.236;-0.892;2022-09-01T01:55:24;101464.98;;;15.04;71.73
62928;BME280;51070;52.236;-0.892;2022-09-01T01:57:52;101461.98;;;15.03;71.63
62928;BME280;51070;52.236;-0.892;2022-09-01T02:00:20;101460.38;;;15.02;71.67
62928;BME280;51070;52.236;-0.892;2022-09-01T02:02:48;101461.05;;;15.01;71.84
62928;BME280;51070;52.236;-0.892;2022-09-01T02:05:17;101464.52;;;15.00;71.81
62928;BME280;51070;52.236;-0.892;2022-09-01T02:07:46;101456.60;;;14.97;71.79
62928;BME280;51070;52.236;-0.892;2022-09-01T02:10:12;101459.86;;;14.95;71.91
62928;BME280;51070;52.236;-0.892;2022-09-01T02:12:38;101452.31;;;14.93;71.96
62928;BME280;51070;52.236;-0.892;2022-09-01T02:15:04;101456.08;;;14.90;71.96
62928;BME280;51070;52.236;-0.892;2022-09-01T02:17:31;101455.47;;;14.87;72.14
62928;BME280;51070;52.236;-0.892;2022-09-01T02:19:56;101459.40;;;14.84;72.11
62928;BME280;51070;52.236;-0.892;2022-09-01T02:22:22;101459.52;;;14.82;72.22
62928;BME280;51070;52.236;-0.892;2022-09-01T02:24:47;101456.67;;;14.80;72.31
62928;BME280;51070;52.236;-0.892;2022-09-01T02:27:13;101455.58;;;14.78;72.35
62928;BME280;51070;52.236;-0.892;2022-09-01T02:29:45;101454.99;;;14.76;72.38
62928;BME280;51070;52.236;-0.892;2022-09-01T02:32:11;101451.83;;;14.75;72.57
62928;BME280;51070;52.236;-0.892;2022-09-01T02:34:36;101450.08;;;14.74;72.64
62928;BME280;51070;52.236;-0.892;2022-09-01T02:37:03;101445.95;;;14.76;72.66
62928;BME280;51070;52.236;-0.892;2022-09-01T02:39:29;101444.98;;;14.79;72.82
62928;BME280;51070;52.236;-0.892;2022-09-01T02:41:57;101439.83;;;14.81;72.87
62928;BME280;51070;52.236;-0.892;2022-09-01T02:44:25;101438.52;;;14.85;72.88
62928;BME280;51070;52.236;-0.892;2022-09-01T02:46:53;101436.30;;;14.86;72.85
62928;BME280;51070;52.236;-0.892;2022-09-01T02:49:19;101435.50;;;14.88;72.84
62928;BME280;51070;52.236;-0.892;2022-09-01T02:51:46;101433.29;;;14.90;72.70
62928;BME280;51070;52.236;-0.892;2022-09-01T02:54:12;101432.79;;;14.91;72.74
62928;BME280;51070;52.236;-0.892;2022-09-01T02:56:41;101428.42;;;14.91;72.80
62928;BME280;51070;52.236;-0.892;2022-09-01T02:59:08;101427.89;;;14.90;72.84
62928;BME280;51070;52.236;-0.892;2022-09-01T03:01:37;101430.13;;;14.89;72.93
62928;BME280;51070;52.236;-0.892;2022-09-01T03:04:03;101424.38;;;14.89;72.97
62928;BME280;51070;52.236;-0.892;2022-09-01T03:06:30;101422.74;;;14.87;73.02
62928;BME280;51070;52.236;-0.892;2022-09-01T03:08:58;101421.49;;;14.86;73.14
62928;BME280;51070;52.236;-0.892;2022-09-01T03:11:25;101419.91;;;14.84;73.25
62928;BME280;51070;52.236;-0.892;2022-09-01T03:13:51;101417.82;;;14.84;73.32
62928;BME280;51070;52.236;-0.892;2022-09-01T03:16:17;101418.34;;;14.84;73.55
62928;BME280;51070;52.236;-0.892;2022-09-01T03:18:43;101420.42;;;14.84;73.48
62928;BME280;51070;52.236;-0.892;2022-09-01T03:21:08;101416.61;;;14.85;73.56
62928;BME280;51070;52.236;-0.892;2022-09-01T03:23:37;101414.61;;;14.88;73.63
62928;BME280;51070;52.236;-0.892;2022-09-01T03:26:03;101416.42;;;14.91;73.70
62928;BME280;51070;52.236;-0.892;2022-09-01T03:28:28;101414.77;;;14.94;73.68
62928;BME280;51070;52.236;-0.892;2022-09-01T03:30:55;101413.62;;;14.97;73.70
62928;BME280;51070;52.236;-0.892;2022-09-01T03:33:21;101411.98;;;15.01;73.71
62928;BME280;51070;52.236;-0.892;2022-09-01T03:35:47;101414.52;;;15.05;73.70
62928;BME280;51070;52.236;-0.892;2022-09-01T03:38:13;101416.87;;;15.08;73.66
62928;BME280;51070;52.236;-0.892;2022-09-01T03:40:46;101412.44;;;15.13;73.64
62928;BME280;51070;52.236;-0.892;2022-09-01T03:43:12;101407.86;;;15.17;73.55
62928;BME280;51070;52.236;-0.892;2022-09-01T03:45:41;101408.79;;;15.20;73.36
62928;BME280;51070;52.236;-0.892;2022-09-01T03:48:08;101408.16;;;15.22;73.24
62928;BME280;51070;52.236;-0.892;2022-09-01T03:50:37;101406.59;;;15.23;73.25
62928;BME280;51070;52.236;-0.892;2022-09-01T03:53:05;101401.35;;;15.21;73.35
62928;BME280;51070;52.236;-0.892;2022-09-01T03:55:32;101400.20;;;15.18;73.31
62928;BME280;51070;52.236;-0.892;2022-09-01T03:58:02;101398.09;;;15.17;73.41
62928;BME280;51070;52.236;-0.892;2022-09-01T04:00:31;101394.40;;;15.15;73.40
62928;BME280;51070;52.236;-0.892;2022-09-01T04:03:00;101392.59;;;15.13;73.41
62928;BME280;51070;52.236;-0.892;2022-09-01T04:05:27;101392.02;;;15.09;73.57
62928;BME280;51070;52.236;-0.892;2022-09-01T04:07:54;101390.90;;;15.07;73.59
62928;BME280;51070;52.236;-0.892;2022-09-01T04:10:20;101389.10;;;15.04;73.68
62928;BME280;51070;52.236;-0.892;2022-09-01T04:12:46;101393.06;;;15.03;73.78
62928;BME280;51070;52.236;-0.892;2022-09-01T04:15:13;101392.14;;;15.01;73.78
62928;BME280;51070;52.236;-0.892;2022-09-01T04:17:38;101392.31;;;15.01;73.88
62928;BME280;51070;52.236;-0.892;2022-09-01T04:20:22;101385.88;;;15.01;73.99
62928;BME280;51070;52.236;-0.892;2022-09-01T04:22:48;101381.35;;;15.01;74.19
62928;BME280;51070;52.236;-0.892;2022-09-01T04:25:15;101375.61;;;15.01;74.18
62928;BME280;51070;52.236;-0.892;2022-09-01T04:27:41;101375.27;;;15.02;74.12
62928;BME280;51070;52.236;-0.892;2022-09-01T04:30:08;101374.55;;;15.01;74.27
62928;BME280;51070;52.236;-0.892;2022-09-01T04:32:35;101375.44;;;15.02;74.28
62928;BME280;51070;52.236;-0.892;2022-09-01T04:35:03;101369.20;;;15.03;74.32
62928;BME280;51070;52.236;-0.892;2022-09-01T04:37:29;101373.23;;;15.03;74.33
62928;BME280;51070;52.236;-0.892;2022-09-01T04:39:55;101371.11;;;15.02;74.43
62928;BME280;51070;52.236;-0.892;2022-09-01T04:42:21;101372.48;;;15.02;74.40
62928;BME280;51070;52.236;-0.892;2022-09-01T04:44:48;101372.48;;;15.02;74.61
62928;BME280;51070;52.236;-0.892;2022-09-01T04:47:16;101371.27;;;15.02;74.55
62928;BME280;51070;52.236;-0.892;2022-09-01T04:49:44;101371.97;;;15.02;74.58
62928;BME280;51070;52.236;-0.892;2022-09-01T04:52:11;101367.46;;;15.03;74.68
62928;BME280;51070;52.236;-0.892;2022-09-01T04:54:37;101363.63;;;15.02;74.84
62928;BME280;51070;52.236;-0.892;2022-09-01T04:57:03;101361.18;;;15.02;74.97
62928;BME280;51070;52.236;-0.892;2022-09-01T04:59:30;101356.48;;;15.02;75.07
62928;BME280;51070;52.236;-0.892;2022-09-01T05:01:56;101355.84;;;15.04;74.95
62928;BME280;51070;52.236;-0.892;2022-09-01T05:04:25;101356.59;;;15.06;75.08
62928;BME280;51070;52.236;-0.892;2022-09-01T05:06:53;101354.40;;;15.09;75.02
62928;BME280;51070;52.236;-0.892;2022-09-01T05:09:25;101355.88;;;15.13;75.03
62928;BME280;51070;52.236;-0.892;2022-09-01T05:11:50;101351.27;;;15.17;75.03
62928;BME280;51070;52.236;-0.892;2022-09-01T05:14:17;101356.59;;;15.21;75.01
62928;BME280;51070;52.236;-0.892;2022-09-01T05:16:43;101352.32;;;15.25;74.96
62928;BME280;51070;52.236;-0.892;2022-09-01T05:19:09;101347.50;;;15.27;74.93
62928;BME280;51070;52.236;-0.892;2022-09-01T05:21:42;101348.44;;;15.30;74.86
62928;BME280;51070;52.236;-0.892;2022-09-01T05:24:14;101350.57;;;15.32;74.80
62928;BME280;51070;52.236;-0.892;2022-09-01T05:26:40;101346.23;;;15.32;74.92
62928;BME280;51070;52.236;-0.892;2022-09-01T05:29:08;101349.73;;;15.33;74.87
62928;BME280;51070;52.236;-0.892;2022-09-01T05:31:38;101352.70;;;15.35;74.89
62928;BME280;51070;52.236;-0.892;2022-09-01T05:34:04;101355.42;;;15.38;74.74
62928;BME280;51070;52.236;-0.892;2022-09-01T05:36:29;101357.60;;;15.42;74.60
62928;BME280;51070;52.236;-0.892;2022-09-01T05:38:59;101359.81;;;15.47;74.54
62928;BME280;51070;52.236;-0.892;2022-09-01T05:41:26;101361.01;;;15.53;74.38
62928;BME280;51070;52.236;-0.892;2022-09-01T05:43:52;101360.60;;;15.59;74.24
62928;BME280;51070;52.236;-0.892;2022-09-01T05:46:19;101358.48;;;15.65;74.03
62928;BME280;51070;52.236;-0.892;2022-09-01T05:48:45;101357.77;;;15.72;73.81
62928;BME280;51070;52.236;-0.892;2022-09-01T05:51:13;101355.10;;;15.78;73.63
62928;BME280;51070;52.236;-0.892;2022-09-01T05:53:42;101354.75;;;15.86;73.51
62928;BME280;51070;52.236;-0.892;2022-09-01T05:56:08;101355.95;;;15.94;73.22
62928;BME280;51070;52.236;-0.892;2022-09-01T05:58:34;101352.50;;;16.04;72.94
62928;BME280;51070;52.236;-0.892;2022-09-01T06:01:00;101360.56;;;16.15;72.75
62928;BME280;51070;52.236;-0.892;2022-09-01T06:03:26;101362.86;;;16.25;72.40
62928;BME280;51070;52.236;-0.892;2022-09-01T06:05:53;101361.28;;;16.34;72.08
62928;BME280;51070;52.236;-0.892;2022-09-01T06:08:22;101354.44;;;16.42;71.73
62928;BME280;51070;52.236;-0.892;2022-09-01T06:10:49;101355.07;;;16.48;71.67
62928;BME280;51070;52.236;-0.892;2022-09-01T06:13:15;101352.05;;;16.54;71.58
62928;BME280;51070;52.236;-0.892;2022-09-01T06:15:41;101355.28;;;16.58;71.39
62928;BME280;51070;52.236;-0.892;2022-09-01T06:18:08;101351.89;;;16.63;71.05
62928;BME280;51070;52.236;-0.892;2022-09-01T06:20:38;101356.17;;;16.68;70.87
62928;BME280;51070;52.236;-0.892;2022-09-01T06:23:04;101349.27;;;16.73;70.69
62928;BME280;51070;52.236;-0.892;2022-09-01T06:25:30;101348.67;;;16.79;70.27
62928;BME280;51070;52.236;-0.892;2022-09-01T06:27:56;101348.96;;;16.85;70.22
62928;BME280;51070;52.236;-0.892;2022-09-01T06:30:21;101344.16;;;16.91;69.83
62928;BME280;51070;52.236;-0.892;2022-09-01T06:32:51;101343.54;;;16.96;69.71
62928;BME280;51070;52.236;-0.892;2022-09-01T06:35:16;101341.35;;;17.00;69.86
62928;BME280;51070;52.236;-0.892;2022-09-01T06:37:42;101338.11;;;17.05;69.53
62928;BME280;51070;52.236;-0.892;2022-09-01T06:40:10;101336.60;;;17.09;69.41
62928;BME280;51070;52.236;-0.892;2022-09-01T06:42:42;101335.77;;;17.12;69.11
62928;BME280;51070;52.236;-0.892;2022-09-01T06:45:09;101336.34;;;17.14;68.96
62928;BME280;51070;52.236;-0.892;2022-09-01T06:47:35;101332.21;;;17.19;69.00
62928;BME280;51070;52.236;-0.892;2022-09-01T06:50:01;101335.74;;;17.23;68.64
62928;BME280;51070;52.236;-0.892;2022-09-01T06:52:27;101336.35;;;17.28;68.49
62928;BME280;51070;52.236;-0.892;2022-09-01T06:54:52;101337.80;;;17.32;68.31
62928;BME280;51070;52.236;-0.892;2022-09-01T06:57:18;101336.50;;;17.38;68.29
62928;BME280;51070;52.236;-0.892;2022-09-01T06:59:45;101339.77;;;17.47;68.11
62928;BME280;51070;52.236;-0.892;2022-09-01T07:02:12;101342.23;;;17.60;67.75
62928;BME280;51070;52.236;-0.892;2022-09-01T07:04:40;101339.77;;;17.71;67.27
62928;BME280;51070;52.236;-0.892;2022-09-01T07:07:08;101344.08;;;17.80;67.06
62928;BME280;51070;52.236;-0.892;2022-09-01T07:09:34;101351.38;;;17.89;66.90
62928;BME280;51070;52.236;-0.892;2022-09-01T07:11:59;101346.91;;;17.97;66.57
62928;BME280;51070;52.236;-0.892;2022-09-01T07:14:28;101347.55;;;18.08;66.27
62928;BME280;51070;52.236;-0.892;2022-09-01T07:16:53;101339.63;;;18.18;66.18
62928;BME280;51070;52.236;-0.892;2022-09-01T07:19:19;101345.34;;;18.29;65.44
62928;BME280;51070;52.236;-0.892;2022-09-01T07:21:44;101346.84;;;18.37;65.25
62928;BME280;51070;52.236;-0.892;2022-09-01T07:24:10;101346.05;;;18.47;64.94
62928;BME280;51070;52.236;-0.892;2022-09-01T07:26:36;101343.00;;;18.54;64.49
62928;BME280;51070;52.236;-0.892;2022-09-01T07:29:03;101339.93;;;18.63;64.43
62928;BME280;51070;52.236;-0.892;2022-09-01T07:31:30;101337.05;;;18.71;63.78
62928;BME280;51070;52.236;-0.892;2022-09-01T07:33:57;101339.21;;;18.79;63.68
62928;BME280;51070;52.236;-0.892;2022-09-01T07:36:23;101338.41;;;18.89;63.20
62928;BME280;51070;52.236;-0.892;2022-09-01T07:38:49;101337.27;;;19.00;63.41
62928;BME280;51070;52.236;-0.892;2022-09-01T07:41:21;101344.57;;;19.15;62.62
62928;BME280;51070;52.236;-0.892;2022-09-01T07:43:48;101345.71;;;19.29;62.54
62928;BME280;51070;52.236;-0.892;2022-09-01T07:46:19;101349.67;;;19.45;61.86
62928;BME280;51070;52.236;-0.892;2022-09-01T07:48:45;101353.09;;;19.56;61.33
62928;BME280;51070;52.236;-0.892;2022-09-01T07:51:12;101347.88;;;19.64;61.12
62928;BME280;51070;52.236;-0.892;2022-09-01T07:53:44;101350.54;;;19.72;60.90
62928;BME280;51070;52.236;-0.892;2022-09-01T07:56:12;101349.34;;;19.79;60.89
62928;BME280;51070;52.236;-0.892;2022-09-01T07:58:39;101348.33;;;19.86;60.34
62928;BME280;51070;52.236;-0.892;2022-09-01T08:01:10;101348.70;;;19.94;60.30
62928;BME280;51070;52.236;-0.892;2022-09-01T08:03:36;101344.52;;;20.04;60.12
62928;BME280;51070;52.236;-0.892;2022-09-01T08:06:06;101344.02;;;20.09;59.66
62928;BME280;51070;52.236;-0.892;2022-09-01T08:08:32;101339.30;;;20.14;59.29
62928;BME280;51070;52.236;-0.892;2022-09-01T08:10:57;101339.67;;;20.22;58.97
62928;BME280;51070;52.236;-0.892;2022-09-01T08:13:23;101338.10;;;20.27;58.86
62928;BME280;51070;52.236;-0.892;2022-09-01T08:15:48;101339.73;;;20.37;58.88
62928;BME280;51070;52.236;-0.892;2022-09-01T08:18:13;101343.27;;;20.53;58.81
62928;BME280;51070;52.236;-0.892;2022-09-01T08:20:39;101339.24;;;20.67;58.33
62928;BME280;51070;52.236;-0.892;2022-09-01T08:23:10;101340.64;;;20.89;57.55
62928;BME280;51070;52.236;-0.892;2022-09-01T08:25:35;101334.06;;;21.52;56.23
62928;BME280;51070;52.236;-0.892;2022-09-01T08:28:01;101328.84;;;22.24;54.68
62928;BME280;51070;52.236;-0.892;2022-09-01T08:30:27;101328.98;;;23.01;53.19
62928;BME280;51070;52.236;-0.892;2022-09-01T08:32:54;101328.06;;;23.73;51.68
62928;BME280;51070;52.236;-0.892;2022-09-01T08:35:19;101325.32;;;24.44;50.45
62928;BME280;51070;52.236;-0.892;2022-09-01T08:37:45;101324.16;;;25.24;48.82
62928;BME280;51070;52.236;-0.892;2022-09-01T08:40:14;101323.71;;;26.00;47.18
62928;BME280;51070;52.236;-0.892;2022-09-01T08:46:00;101326.39;;;26.60;45.03
62928;BME280;51070;52.236;-0.892;2022-09-01T08:50:44;101325.35;;;28.27;41.23
62928;BME280;51070;52.236;-0.892;2022-09-01T08:53:18;101321.48;;;28.90;40.41
62928;BME280;51070;52.236;-0.892;2022-09-01T08:55:46;101323.41;;;29.33;38.72
62928;BME280;51070;52.236;-0.892;2022-09-01T08:58:16;101323.11;;;29.16;38.96
62928;BME280;51070;52.236;-0.892;2022-09-01T09:00:46;101321.00;;;29.55;37.80
62928;BME280;51070;52.236;-0.892;2022-09-01T09:06:04;101311.49;;;29.95;36.83
62928;BME280;51070;52.236;-0.892;2022-09-01T09:11:16;101308.63;;;29.38;36.84
62928;BME280;51070;52.236;-0.892;2022-09-01T09:16:12;101312.48;;;28.73;37.61
62928;BME280;51070;52.236;-0.892;2022-09-01T09:18:50;101311.83;;;27.93;38.95
62928;BME280;51070;52.236;-0.892;2022-09-01T09:23:53;101301.70;;;26.63;39.83
62928;BME280;51070;52.236;-0.892;2022-09-01T09:26:20;101298.66;;;26.43;40.40
62928;BME280;51070;52.236;-0.892;2022-09-01T09:28:46;101300.31;;;26.40;40.48
62928;BME280;51070;52.236;-0.892;2022-09-01T09:33:51;101298.08;;;26.06;40.89
62928;BME280;51070;52.236;-0.892;2022-09-01T09:36:17;101295.83;;;25.96;41.74
62928;BME280;51070;52.236;-0.892;2022-09-01T09:38:43;101292.74;;;26.15;41.02
62928;BME280;51070;52.236;-0.892;2022-09-01T09:41:19;101289.36;;;26.23;40.65
62928;BME280;51070;52.236;-0.892;2022-09-01T09:43:59;101292.34;;;26.25;40.64
62928;BME280;51070;52.236;-0.892;2022-09-01T09:51:34;101294.20;;;25.81;41.00
62928;BME280;51070;52.236;-0.892;2022-09-01T09:54:14;101290.05;;;25.68;41.12
62928;BME280;51070;52.236;-0.892;2022-09-01T09:56:40;101293.11;;;25.66;41.53
62928;BME280;51070;52.236;-0.892;2022-09-01T09:59:15;101287.17;;;25.62;41.53
62928;BME280;51070;52.236;-0.892;2022-09-01T10:01:42;101287.95;;;25.67;41.10
62928;BME280;51070;52.236;-0.892;2022-09-01T10:04:07;101287.40;;;25.84;40.63
62928;BME280;51070;52.236;-0.892;2022-09-01T10:06:34;101286.05;;;25.98;40.00
62928;BME280;51070;52.236;-0.892;2022-09-01T10:09:02;101283.79;;;26.19;39.15
62928;BME280;51070;52.236;-0.892;2022-09-01T10:13:53;101283.04;;;26.58;37.82
62928;BME280;51070;52.236;-0.892;2022-09-01T10:16:26;101281.27;;;26.65;37.61
62928;BME280;51070;52.236;-0.892;2022-09-01T10:18:52;101275.59;;;26.79;38.26
62928;BME280;51070;52.236;-0.892;2022-09-01T10:21:25;101276.90;;;26.83;37.96
62928;BME280;51070;52.236;-0.892;2022-09-01T10:23:53;101273.17;;;26.98;37.89
62928;BME280;51070;52.236;-0.892;2022-09-01T10:26:23;101269.85;;;26.95;38.33
62928;BME280;51070;52.236;-0.892;2022-09-01T10:28:57;101267.63;;;26.93;37.58
62928;BME280;51070;52.236;-0.892;2022-09-01T10:31:27;101265.53;;;26.91;36.90
62928;BME280;51070;52.236;-0.892;2022-09-01T10:33:53;101259.23;;;26.88;37.03
62928;BME280;51070;52.236;-0.892;2022-09-01T10:36:18;101259.21;;;26.81;37.26
62928;BME280;51070;52.236;-0.892;2022-09-01T10:38:45;101259.35;;;26.97;37.56
62928;BME280;51070;52.236;-0.892;2022-09-01T10:41:39;101258.54;;;27.14;37.40
62928;BME280;51070;52.236;-0.892;2022-09-01T10:44:07;101251.88;;;27.48;36.39
62928;BME280;51070;52.236;-0.892;2022-09-01T10:48:58;101247.36;;;27.45;36.45
62928;BME280;51070;52.236;-0.892;2022-09-01T10:53:50;101246.01;;;27.11;36.23
62928;BME280;51070;52.236;-0.892;2022-09-01T11:04:06;101233.55;;;26.66;36.43
62928;BME280;51070;52.236;-0.892;2022-09-01T11:06:41;101233.17;;;26.73;36.42
62928;BME280;51070;52.236;-0.892;2022-09-01T11:09:28;101226.48;;;26.78;36.31
62928;BME280;51070;52.236;-0.892;2022-09-01T11:14:31;101224.02;;;26.99;35.96
62928;BME280;51070;52.236;-0.892;2022-09-01T11:17:09;101225.91;;;27.00;35.52
62928;BME280;51070;52.236;-0.892;2022-09-01T11:30:15;101214.77;;;26.86;35.36
62928;BME280;51070;52.236;-0.892;2022-09-01T11:32:41;101215.05;;;26.89;35.04
62928;BME280;51070;52.236;-0.892;2022-09-01T11:35:13;101217.69;;;26.96;34.82
62928;BME280;51070;52.236;-0.892;2022-09-01T11:37:40;101214.23;;;27.12;34.03
62928;BME280;51070;52.236;-0.892;2022-09-01T11:40:06;101210.84;;;27.20;33.66
62928;BME280;51070;52.236;-0.892;2022-09-01T11:42:38;101208.81;;;27.09;33.31
62928;BME280;51070;52.236;-0.892;2022-09-01T11:45:18;101203.20;;;26.81;33.71
62928;BME280;51070;52.236;-0.892;2022-09-01T11:47:46;101204.92;;;26.63;33.60
62928;BME280;51070;52.236;-0.892;2022-09-01T11:52:42;101199.13;;;26.54;33.28
62928;BME280;51070;52.236;-0.892;2022-09-01T11:55:17;101194.46;;;26.49;33.42
62928;BME280;51070;52.236;-0.892;2022-09-01T11:57:52;101194.45;;;26.50;33.69
62928;BME280;51070;52.236;-0.892;2022-09-01T12:00:24;101198.31;;;26.58;33.98
62928;BME280;51070;52.236;-0.892;2022-09-01T12:02:50;101196.76;;;26.63;34.03
62928;BME280;51070;52.236;-0.892;2022-09-01T12:05:24;101194.36;;;26.67;34.28
62928;BME280;51070;52.236;-0.892;2022-09-01T12:07:50;101194.54;;;26.73;34.27
62928;BME280;51070;52.236;-0.892;2022-09-01T12:10:21;101188.30;;;26.74;33.85
62928;BME280;51070;52.236;-0.892;2022-09-01T12:12:58;101190.16;;;26.72;33.88
62928;BME280;51070;52.236;-0.892;2022-09-01T12:15:24;101189.19;;;26.74;33.65
62928;BME280;51070;52.236;-0.892;2022-09-01T12:17:50;101183.64;;;26.76;34.12
62928;BME280;51070;52.236;-0.892;2022-09-01T12:22:45;101177.71;;;26.73;33.52
62928;BME280;51070;52.236;-0.892;2022-09-01T12:25:18;101173.77;;;26.68;33.63
62928;BME280;51070;52.236;-0.892;2022-09-01T12:27:44;101176.84;;;26.66;34.05
62928;BME280;51070;52.236;-0.892;2022-09-01T12:30:10;101173.27;;;26.66;33.65
62928;BME280;51070;52.236;-0.892;2022-09-01T12:32:35;101168.33;;;26.59;33.35
62928;BME280;51070;52.236;-0.892;2022-09-01T12:35:02;101165.71;;;26.51;33.86
62928;BME280;51070;52.236;-0.892;2022-09-01T12:37:28;101166.06;;;26.45;33.85
62928;BME280;51070;52.236;-0.892;2022-09-01T12:39:55;101169.37;;;26.40;33.65
62928;BME280;51070;52.236;-0.892;2022-09-01T12:42:23;101166.55;;;26.33;33.99
62928;BME280;51070;52.236;-0.892;2022-09-01T12:52:57;101157.15;;;26.34;33.32
62928;BME280;51070;52.236;-0.892;2022-09-01T12:55:24;101158.64;;;26.30;33.09
62928;BME280;51070;52.236;-0.892;2022-09-01T12:57:51;101157.73;;;26.23;32.98
62928;BME280;51070;52.236;-0.892;2022-09-01T13:00:22;101153.15;;;26.15;33.19
62928;BME280;51070;52.236;-0.892;2022-09-01T13:02:48;101154.71;;;26.09;33.34
62928;BME280;51070;52.236;-0.892;2022-09-01T13:07:42;101137.31;;;26.11;33.63
62928;BME280;51070;52.236;-0.892;2022-09-01T13:10:08;101137.79;;;26.13;33.79
62928;BME280;51070;52.236;-0.892;2022-09-01T13:12:33;101136.84;;;26.24;33.53
62928;BME280;51070;52.236;-0.892;2022-09-01T13:15:05;101136.35;;;26.36;33.12
62928;BME280;51070;52.236;-0.892;2022-09-01T13:17:31;101131.00;;;26.37;32.73
62928;BME280;51070;52.236;-0.892;2022-09-01T13:19:56;101127.06;;;26.32;33.14
62928;BME280;51070;52.236;-0.892;2022-09-01T13:22:21;101122.25;;;26.34;33.57
62928;BME280;51070;52.236;-0.892;2022-09-01T13:24:46;101122.31;;;26.38;33.31
62928;BME280;51070;52.236;-0.892;2022-09-01T13:27:12;101120.11;;;26.40;33.08
62928;BME280;51070;52.236;-0.892;2022-09-01T13:29:39;101119.13;;;26.44;33.56
62928;BME280;51070;52.236;-0.892;2022-09-01T13:32:06;101116.27;;;26.51;33.23
62928;BME280;51070;52.236;-0.892;2022-09-01T13:34:33;101116.04;;;26.53;32.87
62928;BME280;51070;52.236;-0.892;2022-09-01T13:36:58;101120.50;;;26.52;32.52
62928;BME280;51070;52.236;-0.892;2022-09-01T13:39:23;101117.86;;;26.45;32.46
62928;BME280;51070;52.236;-0.892;2022-09-01T13:41:49;101114.59;;;26.41;32.54
62928;BME280;51070;52.236;-0.892;2022-09-01T13:44:14;101111.88;;;26.37;32.63
62928;BME280;51070;52.236;-0.892;2022-09-01T13:46:40;101109.24;;;26.35;32.60
62928;BME280;51070;52.236;-0.892;2022-09-01T13:49:05;101108.82;;;26.39;32.82
62928;BME280;51070;52.236;-0.892;2022-09-01T13:51:31;101109.33;;;26.46;32.82
62928;BME280;51070;52.236;-0.892;2022-09-01T13:53:56;101103.00;;;26.50;32.61
62928;BME280;51070;52.236;-0.892;2022-09-01T13:56:22;101104.30;;;26.55;32.19